sensor_id;sensor_type;location;lat;lon;timestamp;P1;durP1;ratioP1;P2;durP2;ratioP2
52512;SDS011;38422;53.172;6.974;2024-03-08T00:01:59;23.35;;;15.10;;
52512;SDS011;38422;53.172;6.974;2024-03-08T00:04:25;24.65;;;15.38;;
52512;SDS011;38422;53.172;6.974;2024-03-08T00:06:51;22.35;;;14.57;;
52512;SDS011;38422;53.172;6.974;2024-03-08T00:09:17;24.10;;;15.45;;
52512;SDS011;38422;53.172;6.974;2024-03-08T00:11:43;25.88;;;16.30;;
52512;SDS011;38422;53.172;6.974;2024-03-08T00:14:08;26.20;;;15.32;;
52512;SDS011;38422;53.172;6.974;2024-03-08T00:16:34;22.23;;;14.82;;
52512;SDS011;38422;53.172;6.974;2024-03-08T00:19:03;25.23;;;15.73;;
52512;SDS011;38422;53.172;6.974;2024-03-08T00:21:29;27.33;;;15.70;;
52512;SDS011;38422;53.172;6.974;2024-03-08T00:23:55;26.33;;;16.15;;
52512;SDS011;38422;53.172;6.974;2024-03-08T00:26:21;28.33;;;15.90;;
52512;SDS011;38422;53.172;6.974;2024-03-08T00:28:49;23.90;;;14.98;;
52512;SDS011;38422;53.172;6.974;2024-03-08T00:31:15;23.38;;;15.40;;
52512;SDS011;38422;53.172;6.974;2024-03-08T00:33:43;25.67;;;15.85;;
52512;SDS011;38422;53.172;6.974;2024-03-08T00:36:09;26.98;;;15.80;;
52512;SDS011;38422;53.172;6.974;2024-03-08T00:38:35;25.55;;;16.50;;
52512;SDS011;38422;53.172;6.974;2024-03-08T00:41:00;25.67;;;15.88;;
52512;SDS011;38422;53.172;6.974;2024-03-08T00:43:27;27.35;;;16.60;;
52512;SDS011;38422;53.172;6.974;2024-03-08T00:45:55;22.30;;;14.95;;
52512;SDS011;38422;53.172;6.974;2024-03-08T00:48:22;26.80;;;15.88;;
52512;SDS011;38422;53.172;6.974;2024-03-08T00:50:48;25.95;;;15.90;;
52512;SDS011;38422;53.172;6.974;2024-03-08T00:53:14;25.42;;;15.05;;
52512;SDS011;38422;53.172;6.974;2024-03-08T00:55:40;24.23;;;15.02;;
52512;SDS011;38422;53.172;6.974;2024-03-08T00:58:05;25.63;;;15.50;;
52512;SDS011;38422;53.172;6.974;2024-03-08T01:00:31;24.42;;;14.85;;
52512;SDS011;38422;53.172;6.974;2024-03-08T01:02:57;25.83;;;15.15;;
52512;SDS011;38422;53.172;6.974;2024-03-08T01:05:23;23.13;;;14.40;;
52512;SDS011;38422;53.172;6.974;2024-03-08T01:07:49;29.83;;;15.95;;
52512;SDS011;38422;53.172;6.974;2024-03-08T01:10:16;24.67;;;15.00;;
52512;SDS011;38422;53.172;6.974;2024-03-08T01:12:42;27.70;;;15.68;;
52512;SDS011;38422;53.172;6.974;2024-03-08T01:15:09;24.00;;;15.68;;
52512;SDS011;38422;53.172;6.974;2024-03-08T01:17:35;24.60;;;15.18;;
52512;SDS011;38422;53.172;6.974;2024-03-08T01:20:01;24.33;;;14.65;;
52512;SDS011;38422;53.172;6.974;2024-03-08T01:22:28;25.42;;;15.52;;
52512;SDS011;38422;53.172;6.974;2024-03-08T01:24:57;24.40;;;15.07;;
52512;SDS011;38422;53.172;6.974;2024-03-08T01:27:23;22.38;;;14.55;;
52512;SDS011;38422;53.172;6.974;2024-03-08T01:29:50;23.13;;;14.50;;
52512;SDS011;38422;53.172;6.974;2024-03-08T01:32:16;27.60;;;15.38;;
52512;SDS011;38422;53.172;6.974;2024-03-08T01:34:42;26.60;;;14.65;;
52512;SDS011;38422;53.172;6.974;2024-03-08T01:39:35;22.98;;;13.85;;
52512;SDS011;38422;53.172;6.974;2024-03-08T01:42:00;26.85;;;14.95;;
52512;SDS011;38422;53.172;6.974;2024-03-08T01:44:26;23.23;;;14.68;;
52512;SDS011;38422;53.172;6.974;2024-03-08T01:46:52;23.30;;;14.07;;
52512;SDS011;38422;53.172;6.974;2024-03-08T01:49:19;22.02;;;14.77;;
52512;SDS011;38422;53.172;6.974;2024-03-08T01:51:47;22.75;;;14.55;;
52512;SDS011;38422;53.172;6.974;2024-03-08T01:54:14;22.58;;;14.23;;
52512;SDS011;38422;53.172;6.974;2024-03-08T01:56:41;23.92;;;14.43;;
52512;SDS011;38422;53.172;6.974;2024-03-08T01:59:08;23.25;;;14.07;;
52512;SDS011;38422;53.172;6.974;2024-03-08T02:01:34;23.10;;;15.00;;
52512;SDS011;38422;53.172;6.974;2024-03-08T02:04:00;24.88;;;14.77;;
52512;SDS011;38422;53.172;6.974;2024-03-08T02:06:26;24.77;;;14.93;;
52512;SDS011;38422;53.172;6.974;2024-03-08T02:08:52;22.70;;;14.20;;
52512;SDS011;38422;53.172;6.974;2024-03-08T02:11:18;23.88;;;15.02;;
52512;SDS011;38422;53.172;6.974;2024-03-08T02:13:45;25.35;;;14.75;;
52512;SDS011;38422;53.172;6.974;2024-03-08T02:16:11;24.50;;;14.48;;
52512;SDS011;38422;53.172;6.974;2024-03-08T02:18:37;21.70;;;13.43;;
52512;SDS011;38422;53.172;6.974;2024-03-08T02:21:05;24.10;;;14.02;;
52512;SDS011;38422;53.172;6.974;2024-03-08T02:23:31;20.85;;;13.43;;
52512;SDS011;38422;53.172;6.974;2024-03-08T02:25:58;22.40;;;14.03;;
52512;SDS011;38422;53.172;6.974;2024-03-08T02:28:24;22.17;;;14.45;;
52512;SDS011;38422;53.172;6.974;2024-03-08T02:30:50;23.58;;;14.32;;
52512;SDS011;38422;53.172;6.974;2024-03-08T02:33:19;22.33;;;13.95;;
52512;SDS011;38422;53.172;6.974;2024-03-08T02:35:45;23.27;;;13.20;;
52512;SDS011;38422;53.172;6.974;2024-03-08T02:38:12;23.05;;;13.52;;
52512;SDS011;38422;53.172;6.974;2024-03-08T02:40:41;23.65;;;14.35;;
52512;SDS011;38422;53.172;6.974;2024-03-08T02:43:08;20.55;;;13.63;;
52512;SDS011;38422;53.172;6.974;2024-03-08T02:45:34;21.20;;;13.73;;
52512;SDS011;38422;53.172;6.974;2024-03-08T02:48:00;22.83;;;13.65;;
52512;SDS011;38422;53.172;6.974;2024-03-08T02:50:26;22.13;;;13.60;;
52512;SDS011;38422;53.172;6.974;2024-03-08T02:52:52;23.92;;;13.68;;
52512;SDS011;38422;53.172;6.974;2024-03-08T02:55:18;22.63;;;13.30;;
52512;SDS011;38422;53.172;6.974;2024-03-08T02:57:43;22.25;;;14.07;;
52512;SDS011;38422;53.172;6.974;2024-03-08T03:00:12;22.27;;;14.23;;
52512;SDS011;38422;53.172;6.974;2024-03-08T03:02:38;23.15;;;13.27;;
52512;SDS011;38422;53.172;6.974;2024-03-08T03:05:04;22.77;;;12.82;;
52512;SDS011;38422;53.172;6.974;2024-03-08T03:07:34;22.70;;;14.02;;
52512;SDS011;38422;53.172;6.974;2024-03-08T03:10:00;22.08;;;13.55;;
52512;SDS011;38422;53.172;6.974;2024-03-08T03:12:30;23.23;;;13.35;;
52512;SDS011;38422;53.172;6.974;2024-03-08T03:14:56;19.80;;;13.20;;
52512;SDS011;38422;53.172;6.974;2024-03-08T03:17:26;21.50;;;13.23;;
52512;SDS011;38422;53.172;6.974;2024-03-08T03:19:52;20.88;;;12.50;;
52512;SDS011;38422;53.172;6.974;2024-03-08T03:22:18;18.92;;;12.80;;
52512;SDS011;38422;53.172;6.974;2024-03-08T03:24:44;22.60;;;13.20;;
52512;SDS011;38422;53.172;6.974;2024-03-08T03:27:14;20.83;;;12.80;;
52512;SDS011;38422;53.172;6.974;2024-03-08T03:29:40;20.10;;;13.05;;
52512;SDS011;38422;53.172;6.974;2024-03-08T03:32:13;21.02;;;13.13;;
52512;SDS011;38422;53.172;6.974;2024-03-08T03:34:40;23.08;;;13.68;;
52512;SDS011;38422;53.172;6.974;2024-03-08T03:37:06;20.40;;;12.90;;
52512;SDS011;38422;53.172;6.974;2024-03-08T03:39:33;19.17;;;12.82;;
52512;SDS011;38422;53.172;6.974;2024-03-08T03:41:59;21.85;;;12.98;;
52512;SDS011;38422;53.172;6.974;2024-03-08T03:44:27;22.80;;;13.98;;
52512;SDS011;38422;53.172;6.974;2024-03-08T03:46:53;23.02;;;13.27;;
52512;SDS011;38422;53.172;6.974;2024-03-08T03:49:19;21.60;;;13.05;;
52512;SDS011;38422;53.172;6.974;2024-03-08T03:51:45;20.08;;;12.70;;
52512;SDS011;38422;53.172;6.974;2024-03-08T03:54:12;20.17;;;12.77;;
52512;SDS011;38422;53.172;6.974;2024-03-08T03:56:38;20.27;;;12.40;;
52512;SDS011;38422;53.172;6.974;2024-03-08T03:59:05;21.35;;;12.43;;
52512;SDS011;38422;53.172;6.974;2024-03-08T04:01:31;21.23;;;13.07;;
52512;SDS011;38422;53.172;6.974;2024-03-08T04:03:58;21.55;;;13.02;;
52512;SDS011;38422;53.172;6.974;2024-03-08T04:06:24;22.92;;;12.70;;
52512;SDS011;38422;53.172;6.974;2024-03-08T04:08:49;20.55;;;12.77;;
52512;SDS011;38422;53.172;6.974;2024-03-08T04:11:15;20.15;;;12.20;;
52512;SDS011;38422;53.172;6.974;2024-03-08T04:13:42;20.42;;;12.40;;
52512;SDS011;38422;53.172;6.974;2024-03-08T04:16:08;20.13;;;12.63;;
52512;SDS011;38422;53.172;6.974;2024-03-08T04:18:34;19.08;;;12.30;;
52512;SDS011;38422;53.172;6.974;2024-03-08T04:21:06;20.95;;;12.40;;
52512;SDS011;38422;53.172;6.974;2024-03-08T04:23:32;20.55;;;12.30;;
52512;SDS011;38422;53.172;6.974;2024-03-08T04:26:01;22.58;;;12.52;;
52512;SDS011;38422;53.172;6.974;2024-03-08T04:28:29;20.33;;;12.30;;
52512;SDS011;38422;53.172;6.974;2024-03-08T04:30:56;19.90;;;11.85;;
52512;SDS011;38422;53.172;6.974;2024-03-08T04:33:22;22.63;;;11.65;;
52512;SDS011;38422;53.172;6.974;2024-03-08T04:35:48;22.55;;;11.90;;
52512;SDS011;38422;53.172;6.974;2024-03-08T04:38:14;19.77;;;11.98;;
52512;SDS011;38422;53.172;6.974;2024-03-08T04:40:40;19.83;;;11.75;;
52512;SDS011;38422;53.172;6.974;2024-03-08T04:43:06;19.38;;;12.25;;
52512;SDS011;38422;53.172;6.974;2024-03-08T04:45:34;18.65;;;12.15;;
52512;SDS011;38422;53.172;6.974;2024-03-08T04:47:59;18.98;;;11.52;;
52512;SDS011;38422;53.172;6.974;2024-03-08T04:50:25;21.90;;;12.18;;
52512;SDS011;38422;53.172;6.974;2024-03-08T04:52:54;19.33;;;11.75;;
52512;SDS011;38422;53.172;6.974;2024-03-08T04:55:20;20.50;;;11.52;;
52512;SDS011;38422;53.172;6.974;2024-03-08T04:57:46;21.73;;;12.05;;
52512;SDS011;38422;53.172;6.974;2024-03-08T05:00:13;23.13;;;12.70;;
52512;SDS011;38422;53.172;6.974;2024-03-08T05:02:40;17.95;;;11.68;;
52512;SDS011;38422;53.172;6.974;2024-03-08T05:05:06;20.33;;;11.77;;
52512;SDS011;38422;53.172;6.974;2024-03-08T05:10:00;17.90;;;11.55;;
52512;SDS011;38422;53.172;6.974;2024-03-08T05:12:27;19.42;;;10.02;;
52512;SDS011;38422;53.172;6.974;2024-03-08T05:14:53;17.05;;;8.57;;
52512;SDS011;38422;53.172;6.974;2024-03-08T05:17:19;14.93;;;6.50;;
52512;SDS011;38422;53.172;6.974;2024-03-08T05:19:44;15.55;;;6.88;;
52512;SDS011;38422;53.172;6.974;2024-03-08T05:22:10;15.63;;;6.07;;
52512;SDS011;38422;53.172;6.974;2024-03-08T05:24:36;15.85;;;7.13;;
52512;SDS011;38422;53.172;6.974;2024-03-08T05:27:02;13.20;;;6.57;;
52512;SDS011;38422;53.172;6.974;2024-03-08T05:29:28;12.90;;;6.55;;
52512;SDS011;38422;53.172;6.974;2024-03-08T05:31:54;13.07;;;6.18;;
52512;SDS011;38422;53.172;6.974;2024-03-08T05:34:21;15.57;;;7.13;;
52512;SDS011;38422;53.172;6.974;2024-03-08T05:36:50;16.15;;;6.60;;
52512;SDS011;38422;53.172;6.974;2024-03-08T05:39:16;17.80;;;8.73;;
52512;SDS011;38422;53.172;6.974;2024-03-08T05:41:43;16.55;;;8.40;;
52512;SDS011;38422;53.172;6.974;2024-03-08T05:44:09;15.80;;;9.02;;
52512;SDS011;38422;53.172;6.974;2024-03-08T05:46:35;14.77;;;8.05;;
52512;SDS011;38422;53.172;6.974;2024-03-08T05:49:08;17.45;;;8.80;;
52512;SDS011;38422;53.172;6.974;2024-03-08T05:51:35;15.85;;;8.65;;
52512;SDS011;38422;53.172;6.974;2024-03-08T05:56:30;17.30;;;8.90;;
52512;SDS011;38422;53.172;6.974;2024-03-08T05:58:58;16.65;;;8.35;;
52512;SDS011;38422;53.172;6.974;2024-03-08T06:01:25;17.52;;;8.60;;
52512;SDS011;38422;53.172;6.974;2024-03-08T06:03:54;17.98;;;8.70;;
52512;SDS011;38422;53.172;6.974;2024-03-08T06:06:22;16.33;;;8.77;;
52512;SDS011;38422;53.172;6.974;2024-03-08T06:08:48;17.75;;;9.13;;
52512;SDS011;38422;53.172;6.974;2024-03-08T06:11:15;18.65;;;8.57;;
52512;SDS011;38422;53.172;6.974;2024-03-08T06:13:45;18.25;;;9.02;;
52512;SDS011;38422;53.172;6.974;2024-03-08T06:16:11;17.75;;;9.05;;
52512;SDS011;38422;53.172;6.974;2024-03-08T06:18:37;17.10;;;8.45;;
52512;SDS011;38422;53.172;6.974;2024-03-08T06:21:04;16.52;;;8.65;;
52512;SDS011;38422;53.172;6.974;2024-03-08T06:23:33;16.63;;;8.73;;
52512;SDS011;38422;53.172;6.974;2024-03-08T06:26:12;17.33;;;8.85;;
52512;SDS011;38422;53.172;6.974;2024-03-08T06:28:38;19.92;;;8.88;;
52512;SDS011;38422;53.172;6.974;2024-03-08T06:31:03;16.48;;;8.35;;
52512;SDS011;38422;53.172;6.974;2024-03-08T06:33:29;19.65;;;8.77;;
52512;SDS011;38422;53.172;6.974;2024-03-08T06:35:57;19.95;;;8.98;;
52512;SDS011;38422;53.172;6.974;2024-03-08T06:38:23;18.33;;;9.25;;
52512;SDS011;38422;53.172;6.974;2024-03-08T06:40:50;14.85;;;8.00;;
52512;SDS011;38422;53.172;6.974;2024-03-08T06:43:16;18.93;;;9.07;;
52512;SDS011;38422;53.172;6.974;2024-03-08T06:45:43;17.33;;;8.23;;
52512;SDS011;38422;53.172;6.974;2024-03-08T06:48:18;17.65;;;9.18;;
52512;SDS011;38422;53.172;6.974;2024-03-08T06:50:44;16.70;;;8.73;;
52512;SDS011;38422;53.172;6.974;2024-03-08T06:53:11;16.50;;;8.70;;
52512;SDS011;38422;53.172;6.974;2024-03-08T06:55:38;17.50;;;8.82;;
52512;SDS011;38422;53.172;6.974;2024-03-08T06:58:04;17.70;;;8.77;;
52512;SDS011;38422;53.172;6.974;2024-03-08T07:00:32;18.50;;;9.18;;
52512;SDS011;38422;53.172;6.974;2024-03-08T07:02:57;16.25;;;8.13;;
52512;SDS011;38422;53.172;6.974;2024-03-08T07:05:27;17.45;;;9.20;;
52512;SDS011;38422;53.172;6.974;2024-03-08T07:07:54;17.45;;;8.27;;
52512;SDS011;38422;53.172;6.974;2024-03-08T07:10:23;18.10;;;8.80;;
52512;SDS011;38422;53.172;6.974;2024-03-08T07:12:51;17.15;;;9.23;;
52512;SDS011;38422;53.172;6.974;2024-03-08T07:15:20;17.63;;;9.10;;
52512;SDS011;38422;53.172;6.974;2024-03-08T07:17:46;20.63;;;10.07;;
52512;SDS011;38422;53.172;6.974;2024-03-08T07:20:12;21.58;;;9.73;;
52512;SDS011;38422;53.172;6.974;2024-03-08T07:22:40;17.83;;;9.32;;
52512;SDS011;38422;53.172;6.974;2024-03-08T07:25:06;19.42;;;10.38;;
52512;SDS011;38422;53.172;6.974;2024-03-08T07:27:32;18.15;;;9.73;;
52512;SDS011;38422;53.172;6.974;2024-03-08T07:29:59;18.53;;;10.03;;
52512;SDS011;38422;53.172;6.974;2024-03-08T07:32:26;20.25;;;9.23;;
52512;SDS011;38422;53.172;6.974;2024-03-08T07:34:54;17.73;;;8.93;;
52512;SDS011;38422;53.172;6.974;2024-03-08T07:37:21;17.20;;;9.18;;
52512;SDS011;38422;53.172;6.974;2024-03-08T07:39:47;19.73;;;12.77;;
52512;SDS011;38422;53.172;6.974;2024-03-08T07:42:12;19.13;;;9.57;;
52512;SDS011;38422;53.172;6.974;2024-03-08T07:44:38;18.63;;;10.68;;
52512;SDS011;38422;53.172;6.974;2024-03-08T07:47:05;21.25;;;11.02;;
52512;SDS011;38422;53.172;6.974;2024-03-08T07:49:34;22.10;;;11.18;;
52512;SDS011;38422;53.172;6.974;2024-03-08T07:52:00;17.35;;;10.50;;
52512;SDS011;38422;53.172;6.974;2024-03-08T07:54:26;19.15;;;11.60;;
52512;SDS011;38422;53.172;6.974;2024-03-08T07:56:52;17.10;;;8.93;;
52512;SDS011;38422;53.172;6.974;2024-03-08T07:59:18;17.05;;;10.05;;
52512;SDS011;38422;53.172;6.974;2024-03-08T08:01:44;17.88;;;9.88;;
52512;SDS011;38422;53.172;6.974;2024-03-08T08:04:10;20.00;;;10.65;;
52512;SDS011;38422;53.172;6.974;2024-03-08T08:09:06;18.63;;;9.93;;
52512;SDS011;38422;53.172;6.974;2024-03-08T08:11:53;16.35;;;9.45;;
52512;SDS011;38422;53.172;6.974;2024-03-08T08:14:19;18.38;;;10.40;;
52512;SDS011;38422;53.172;6.974;2024-03-08T08:16:46;16.48;;;9.57;;
52512;SDS011;38422;53.172;6.974;2024-03-08T08:19:14;18.02;;;9.65;;
52512;SDS011;38422;53.172;6.974;2024-03-08T08:21:40;18.13;;;10.13;;
52512;SDS011;38422;53.172;6.974;2024-03-08T08:24:06;18.95;;;10.75;;
52512;SDS011;38422;53.172;6.974;2024-03-08T08:26:32;19.40;;;10.65;;
52512;SDS011;38422;53.172;6.974;2024-03-08T08:28:59;17.73;;;10.02;;
52512;SDS011;38422;53.172;6.974;2024-03-08T08:31:25;17.52;;;10.07;;
52512;SDS011;38422;53.172;6.974;2024-03-08T08:33:51;17.92;;;9.75;;
52512;SDS011;38422;53.172;6.974;2024-03-08T08:36:23;17.33;;;9.75;;
52512;SDS011;38422;53.172;6.974;2024-03-08T08:38:54;16.65;;;9.98;;
52512;SDS011;38422;53.172;6.974;2024-03-08T08:41:23;18.88;;;10.15;;
52512;SDS011;38422;53.172;6.974;2024-03-08T08:43:49;21.08;;;10.85;;
52512;SDS011;38422;53.172;6.974;2024-03-08T08:46:18;20.60;;;10.55;;
52512;SDS011;38422;53.172;6.974;2024-03-08T08:48:44;18.17;;;10.15;;
52512;SDS011;38422;53.172;6.974;2024-03-08T08:51:11;16.73;;;10.07;;
52512;SDS011;38422;53.172;6.974;2024-03-08T08:53:40;18.30;;;10.73;;
52512;SDS011;38422;53.172;6.974;2024-03-08T08:56:15;17.70;;;10.88;;
52512;SDS011;38422;53.172;6.974;2024-03-08T08:58:44;20.30;;;11.40;;
52512;SDS011;38422;53.172;6.974;2024-03-08T09:01:10;16.98;;;9.82;;
52512;SDS011;38422;53.172;6.974;2024-03-08T09:03:37;18.55;;;10.50;;
52512;SDS011;38422;53.172;6.974;2024-03-08T09:06:03;20.15;;;11.15;;
52512;SDS011;38422;53.172;6.974;2024-03-08T09:08:29;17.92;;;11.13;;
52512;SDS011;38422;53.172;6.974;2024-03-08T09:10:55;17.92;;;10.77;;
52512;SDS011;38422;53.172;6.974;2024-03-08T09:13:21;17.60;;;10.80;;
52512;SDS011;38422;53.172;6.974;2024-03-08T09:15:48;20.30;;;11.23;;
52512;SDS011;38422;53.172;6.974;2024-03-08T09:18:13;18.95;;;11.23;;
52512;SDS011;38422;53.172;6.974;2024-03-08T09:20:39;19.30;;;11.60;;
52512;SDS011;38422;53.172;6.974;2024-03-08T09:23:06;19.50;;;11.10;;
52512;SDS011;38422;53.172;6.974;2024-03-08T09:25:33;19.15;;;10.55;;
52512;SDS011;38422;53.172;6.974;2024-03-08T09:27:59;18.70;;;11.68;;
52512;SDS011;38422;53.172;6.974;2024-03-08T09:30:25;18.10;;;11.57;;
52512;SDS011;38422;53.172;6.974;2024-03-08T09:32:50;18.05;;;11.38;;
52512;SDS011;38422;53.172;6.974;2024-03-08T09:35:16;18.75;;;11.63;;
52512;SDS011;38422;53.172;6.974;2024-03-08T09:37:42;19.33;;;11.25;;
52512;SDS011;38422;53.172;6.974;2024-03-08T09:40:08;18.70;;;12.38;;
52512;SDS011;38422;53.172;6.974;2024-03-08T09:42:41;18.15;;;8.95;;
52512;SDS011;38422;53.172;6.974;2024-03-08T09:45:10;17.20;;;9.55;;
52512;SDS011;38422;53.172;6.974;2024-03-08T09:47:40;17.85;;;8.68;;
52512;SDS011;38422;53.172;6.974;2024-03-08T09:50:07;16.65;;;8.70;;
52512;SDS011;38422;53.172;6.974;2024-03-08T09:52:41;17.50;;;9.77;;
52512;SDS011;38422;53.172;6.974;2024-03-08T09:57:37;16.75;;;9.18;;
52512;SDS011;38422;53.172;6.974;2024-03-08T10:00:04;18.10;;;9.55;;
52512;SDS011;38422;53.172;6.974;2024-03-08T10:02:46;15.75;;;8.50;;
52512;SDS011;38422;53.172;6.974;2024-03-08T10:05:13;19.05;;;8.63;;
52512;SDS011;38422;53.172;6.974;2024-03-08T10:07:39;19.33;;;9.55;;
52512;SDS011;38422;53.172;6.974;2024-03-08T10:10:05;16.27;;;8.77;;
52512;SDS011;38422;53.172;6.974;2024-03-08T10:12:34;16.58;;;9.38;;
52512;SDS011;38422;53.172;6.974;2024-03-08T10:15:00;17.55;;;9.88;;
52512;SDS011;38422;53.172;6.974;2024-03-08T10:17:26;16.30;;;9.05;;
52512;SDS011;38422;53.172;6.974;2024-03-08T10:19:57;16.98;;;9.05;;
52512;SDS011;38422;53.172;6.974;2024-03-08T10:22:25;20.42;;;9.63;;
52512;SDS011;38422;53.172;6.974;2024-03-08T10:24:51;17.00;;;8.68;;
52512;SDS011;38422;53.172;6.974;2024-03-08T10:27:17;19.27;;;9.30;;
52512;SDS011;38422;53.172;6.974;2024-03-08T10:29:45;17.67;;;8.97;;
52512;SDS011;38422;53.172;6.974;2024-03-08T10:32:13;16.65;;;8.77;;
52512;SDS011;38422;53.172;6.974;2024-03-08T10:34:38;18.17;;;8.73;;
52512;SDS011;38422;53.172;6.974;2024-03-08T10:37:04;17.17;;;9.32;;
52512;SDS011;38422;53.172;6.974;2024-03-08T10:39:36;18.63;;;9.05;;
52512;SDS011;38422;53.172;6.974;2024-03-08T10:42:02;17.73;;;9.15;;
52512;SDS011;38422;53.172;6.974;2024-03-08T10:47:00;17.33;;;9.38;;
52512;SDS011;38422;53.172;6.974;2024-03-08T10:49:37;18.02;;;9.93;;
52512;SDS011;38422;53.172;6.974;2024-03-08T10:52:07;16.02;;;9.15;;
52512;SDS011;38422;53.172;6.974;2024-03-08T10:54:37;16.17;;;9.40;;
52512;SDS011;38422;53.172;6.974;2024-03-08T10:57:06;15.60;;;8.95;;
52512;SDS011;38422;53.172;6.974;2024-03-08T10:59:34;18.02;;;10.07;;
52512;SDS011;38422;53.172;6.974;2024-03-08T11:02:00;15.57;;;9.53;;
52512;SDS011;38422;53.172;6.974;2024-03-08T11:04:26;15.15;;;9.18;;
52512;SDS011;38422;53.172;6.974;2024-03-08T11:06:54;16.88;;;9.93;;
52512;SDS011;38422;53.172;6.974;2024-03-08T11:09:28;18.27;;;9.73;;
52512;SDS011;38422;53.172;6.974;2024-03-08T11:14:50;16.98;;;10.20;;
52512;SDS011;38422;53.172;6.974;2024-03-08T11:17:21;17.40;;;9.82;;
52512;SDS011;38422;53.172;6.974;2024-03-08T11:19:57;17.05;;;9.60;;
52512;SDS011;38422;53.172;6.974;2024-03-08T11:22:32;16.70;;;9.88;;
52512;SDS011;38422;53.172;6.974;2024-03-08T11:24:59;15.32;;;9.02;;
52512;SDS011;38422;53.172;6.974;2024-03-08T11:27:28;18.90;;;10.27;;
52512;SDS011;38422;53.172;6.974;2024-03-08T11:29:59;16.58;;;9.52;;
52512;SDS011;38422;53.172;6.974;2024-03-08T11:32:33;16.25;;;9.52;;
52512;SDS011;38422;53.172;6.974;2024-03-08T11:35:01;17.45;;;10.00;;
52512;SDS011;38422;53.172;6.974;2024-03-08T11:37:32;14.27;;;7.90;;
52512;SDS011;38422;53.172;6.974;2024-03-08T11:39:59;15.45;;;8.15;;
52512;SDS011;38422;53.172;6.974;2024-03-08T11:42:27;17.25;;;8.65;;
52512;SDS011;38422;53.172;6.974;2024-03-08T11:44:52;16.17;;;7.80;;
52512;SDS011;38422;53.172;6.974;2024-03-08T11:47:19;15.10;;;8.35;;
52512;SDS011;38422;53.172;6.974;2024-03-08T11:49:49;16.13;;;8.55;;
52512;SDS011;38422;53.172;6.974;2024-03-08T11:52:16;16.52;;;8.18;;
52512;SDS011;38422;53.172;6.974;2024-03-08T11:54:47;13.95;;;7.88;;
52512;SDS011;38422;53.172;6.974;2024-03-08T11:57:19;13.63;;;8.13;;
52512;SDS011;38422;53.172;6.974;2024-03-08T11:59:54;13.98;;;8.25;;
52512;SDS011;38422;53.172;6.974;2024-03-08T12:02:21;16.65;;;8.43;;
52512;SDS011;38422;53.172;6.974;2024-03-08T12:04:55;14.43;;;8.48;;
52512;SDS011;38422;53.172;6.974;2024-03-08T12:07:22;15.40;;;8.07;;
52512;SDS011;38422;53.172;6.974;2024-03-08T12:12:46;14.85;;;7.88;;
52512;SDS011;38422;53.172;6.974;2024-03-08T12:15:14;14.80;;;7.82;;
52512;SDS011;38422;53.172;6.974;2024-03-08T12:20:11;16.75;;;8.60;;
52512;SDS011;38422;53.172;6.974;2024-03-08T12:22:42;13.93;;;7.85;;
52512;SDS011;38422;53.172;6.974;2024-03-08T12:25:08;13.35;;;7.85;;
52512;SDS011;38422;53.172;6.974;2024-03-08T12:27:36;14.73;;;7.95;;
52512;SDS011;38422;53.172;6.974;2024-03-08T12:30:23;14.73;;;7.90;;
52512;SDS011;38422;53.172;6.974;2024-03-08T12:35:25;16.42;;;8.50;;
52512;SDS011;38422;53.172;6.974;2024-03-08T12:37:53;13.10;;;7.57;;
52512;SDS011;38422;53.172;6.974;2024-03-08T12:40:26;14.95;;;8.05;;
52512;SDS011;38422;53.172;6.974;2024-03-08T12:42:57;12.80;;;7.60;;
52512;SDS011;38422;53.172;6.974;2024-03-08T12:45:23;13.68;;;8.02;;
52512;SDS011;38422;53.172;6.974;2024-03-08T12:47:50;14.98;;;7.25;;
52512;SDS011;38422;53.172;6.974;2024-03-08T12:50:16;11.75;;;6.75;;
52512;SDS011;38422;53.172;6.974;2024-03-08T12:52:42;13.50;;;7.30;;
52512;SDS011;38422;53.172;6.974;2024-03-08T12:55:08;13.63;;;7.50;;
52512;SDS011;38422;53.172;6.974;2024-03-08T12:57:34;11.90;;;7.10;;
52512;SDS011;38422;53.172;6.974;2024-03-08T13:00:03;14.48;;;7.35;;
52512;SDS011;38422;53.172;6.974;2024-03-08T13:04:58;15.70;;;6.65;;
52512;SDS011;38422;53.172;6.974;2024-03-08T13:07:24;12.15;;;7.07;;
52512;SDS011;38422;53.172;6.974;2024-03-08T13:09:54;10.77;;;6.40;;
52512;SDS011;38422;53.172;6.974;2024-03-08T13:12:20;13.02;;;6.68;;
52512;SDS011;38422;53.172;6.974;2024-03-08T13:14:47;13.13;;;7.32;;
52512;SDS011;38422;53.172;6.974;2024-03-08T13:17:16;12.45;;;7.15;;
52512;SDS011;38422;53.172;6.974;2024-03-08T13:19:46;13.70;;;7.38;;
52512;SDS011;38422;53.172;6.974;2024-03-08T13:22:12;12.93;;;7.20;;
52512;SDS011;38422;53.172;6.974;2024-03-08T13:24:41;13.00;;;7.05;;
52512;SDS011;38422;53.172;6.974;2024-03-08T13:27:10;13.43;;;7.07;;
52512;SDS011;38422;53.172;6.974;2024-03-08T13:29:45;12.10;;;6.82;;
52512;SDS011;38422;53.172;6.974;2024-03-08T13:32:17;10.68;;;6.32;;
52512;SDS011;38422;53.172;6.974;2024-03-08T13:34:45;11.93;;;6.93;;
52512;SDS011;38422;53.172;6.974;2024-03-08T13:37:16;12.85;;;6.82;;
52512;SDS011;38422;53.172;6.974;2024-03-08T13:39:42;11.50;;;6.53;;
52512;SDS011;38422;53.172;6.974;2024-03-08T13:42:13;10.68;;;6.45;;
52512;SDS011;38422;53.172;6.974;2024-03-08T13:44:44;11.98;;;7.13;;
52512;SDS011;38422;53.172;6.974;2024-03-08T13:47:12;12.05;;;6.78;;
52512;SDS011;38422;53.172;6.974;2024-03-08T13:49:39;12.45;;;7.20;;
52512;SDS011;38422;53.172;6.974;2024-03-08T13:52:05;12.05;;;6.93;;
52512;SDS011;38422;53.172;6.974;2024-03-08T13:54:33;11.38;;;6.38;;
52512;SDS011;38422;53.172;6.974;2024-03-08T13:57:00;11.55;;;6.45;;
52512;SDS011;38422;53.172;6.974;2024-03-08T13:59:29;13.30;;;6.88;;
52512;SDS011;38422;53.172;6.974;2024-03-08T14:01:55;11.65;;;6.78;;
52512;SDS011;38422;53.172;6.974;2024-03-08T14:04:22;12.95;;;7.10;;
52512;SDS011;38422;53.172;6.974;2024-03-08T14:06:49;11.07;;;6.80;;
52512;SDS011;38422;53.172;6.974;2024-03-08T14:09:15;11.43;;;6.22;;
52512;SDS011;38422;53.172;6.974;2024-03-08T14:11:44;13.07;;;6.50;;
52512;SDS011;38422;53.172;6.974;2024-03-08T14:14:10;11.43;;;6.82;;
52512;SDS011;38422;53.172;6.974;2024-03-08T14:16:38;14.38;;;7.30;;
52512;SDS011;38422;53.172;6.974;2024-03-08T14:19:04;12.82;;;6.90;;
52512;SDS011;38422;53.172;6.974;2024-03-08T14:21:35;12.88;;;7.15;;
52512;SDS011;38422;53.172;6.974;2024-03-08T14:24:02;12.05;;;6.88;;
52512;SDS011;38422;53.172;6.974;2024-03-08T14:26:29;13.13;;;6.95;;
52512;SDS011;38422;53.172;6.974;2024-03-08T14:28:55;13.48;;;7.00;;
52512;SDS011;38422;53.172;6.974;2024-03-08T14:31:22;10.43;;;6.32;;
52512;SDS011;38422;53.172;6.974;2024-03-08T14:33:51;13.73;;;6.90;;
52512;SDS011;38422;53.172;6.974;2024-03-08T14:36:18;11.52;;;6.72;;
52512;SDS011;38422;53.172;6.974;2024-03-08T14:38:48;13.73;;;7.45;;
52512;SDS011;38422;53.172;6.974;2024-03-08T14:41:14;11.18;;;6.40;;
52512;SDS011;38422;53.172;6.974;2024-03-08T14:43:43;12.32;;;7.07;;
52512;SDS011;38422;53.172;6.974;2024-03-08T14:46:13;14.18;;;7.45;;
52512;SDS011;38422;53.172;6.974;2024-03-08T14:48:51;12.80;;;7.25;;
52512;SDS011;38422;53.172;6.974;2024-03-08T14:51:21;13.55;;;7.07;;
52512;SDS011;38422;53.172;6.974;2024-03-08T14:53:51;12.07;;;6.60;;
52512;SDS011;38422;53.172;6.974;2024-03-08T14:56:18;13.63;;;8.10;;
52512;SDS011;38422;53.172;6.974;2024-03-08T14:58:44;14.27;;;7.22;;